Latest Weather Observations for King Island Airport

IDT60801

Issued at 7:31 am EDT Tuesday 6 December 2022 (issued every 10 minutes, with the page automatically refreshed every 10 minutes)

About weather observations | Map of weather stations | Latest weather observations for TAS | Other Formats
Station Details ID: 098017 Name: KING ISLAND AIRPORT Lat: -39.88 Lon: 143.89 Height: 35.42 m
Data from the previous 72 hours. | See also: Recent months at King Island Airport
Date/Time
EDT
Temp
°C
App
Temp
°C
Dew
Point
°C
Rel
Hum
%
Delta-T
°C
Wind Press
QNH
hPa
Press
MSL
hPa
Rain since
9am
mm
Dir  Spd
km/h
Gust
km/h
Spd
kts
Gust
kts
06/07:30am 12.6 9.9 8.9 78 1.9 ESE 13 17 7 9 1013.4 1013.4 0.0
06/07:00am 12.4 10.9 10.6 89 0.9 E 9 11 5 6 1013.3 1013.3 0.0
06/06:30am 11.7 10.6 10.6 93 0.6 SSE 7 9 4 5 1013.3 1013.3 0.0
06/06:00am 11.6 11.0 10.3 92 0.7 SSE 4 7 2 4 1013.2 1013.2 0.0
06/05:30am 11.3 9.6 10.0 92 0.7 S 9 11 5 6 1013.1 1013.1 0.0
06/05:00am 10.9 9.6 9.8 93 0.6 SSE 7 11 4 6 1013.0 1013.0 0.0
06/04:30am 9.8 8.1 8.4 91 0.7 S 7 9 4 5 1013.0 1013.0 0.0
06/04:00am 10.3 7.9 8.6 89 0.8 S 11 15 6 8 1013.0 1013.0 0.0
06/03:30am 10.8 8.4 8.6 86 1.1 S 11 15 6 8 1013.2 1013.2 0.0
06/03:00am 11.5 8.4 8.7 83 1.4 S 15 20 8 11 1013.4 1013.4 0.0
06/02:30am 11.4 8.2 8.6 83 1.4 S 15 20 8 11 1013.6 1013.6 0.0
06/02:00am 11.3 8.4 8.3 82 1.5 SSE 13 19 7 10 1013.7 1013.7 0.0
06/01:30am 11.6 7.7 8.6 82 1.5 SSE 19 28 10 15 1013.7 1013.7 0.0
06/01:00am 11.3 7.0 8.0 80 1.6 S 20 26 11 14 1013.9 1013.9 0.0
06/12:30am 11.4 7.2 8.1 80 1.6 S 20 32 11 17 1014.1 1014.1 0.0
06/12:00am 11.3 6.7 8.2 81 1.5 SSE 22 37 12 20 1014.2 1014.2 0.0
 
Date/Time
EDT
Temp
°C
App
Temp
°C
Dew
Point
°C
Rel
Hum
%
Delta-T
°C
Wind Press
QNH
hPa
Press
MSL
hPa
Rain since
9am
mm
Dir  Spd
km/h
Gust
km/h
Spd
kts
Gust
kts
05/11:30pm 10.9 6.8 8.0 82 1.4 SSE 19 28 10 15 1014.5 1014.5 0.0
05/11:00pm 11.2 7.0 8.1 81 1.5 S 20 37 11 20 1014.6 1014.6 0.0
05/10:30pm 11.3 6.3 8.0 80 1.6 S 24 39 13 21 1014.6 1014.6 0.0
05/10:00pm 11.6 6.2 7.9 78 1.8 S 26 43 14 23 1014.6 1014.6 0.0
05/09:30pm 11.7 5.5 7.8 77 1.9 S 30 50 16 27 1014.4 1014.4 0.0
05/09:04pm 12.0 6.2 8.1 77 1.9 S 28 48 15 26 1014.2 1014.2 0.0
05/09:00pm 11.9 6.5 8.2 78 1.8 S 26 44 14 24 1014.2 1014.2 0.0
05/08:33pm 12.2 6.3 7.7 74 2.2 S 28 50 15 27 1014.0 1014.0 0.0
05/08:30pm 12.2 6.8 8.1 76 2.0 S 26 41 14 22 1014.1 1014.1 0.0
05/08:04pm 12.3 6.1 8.0 75 2.1 S 30 48 16 26 1013.9 1013.9 0.0
05/08:00pm 12.4 5.6 7.9 74 2.2 S 33 48 18 26 1013.8 1013.8 0.0
05/07:30pm 12.5 4.6 7.8 73 2.3 S 39 63 21 34 1013.5 1013.5 0.0
05/07:00pm 13.1 4.9 8.2 72 2.4 SSW 41 67 22 36 1013.2 1013.2 0.0
05/06:30pm 13.3 5.2 8.6 73 2.4 SSW 41 59 22 32 1012.7 1012.7 0.0
05/06:21pm 13.2 5.1 8.5 73 2.3 SSW 41 59 22 32 1012.7 1012.7 0.0
05/06:00pm 13.4 4.4 8.7 73 2.4 SSW 46 61 25 33 1012.5 1012.5 0.0
05/05:30pm 13.7 5.6 8.7 72 2.5 S 41 59 22 32 1012.6 1012.6 0.0
05/05:00pm 14.0 5.9 8.8 71 2.6 SSW 41 61 22 33 1012.5 1012.5 0.0
05/04:30pm 14.5 6.3 9.7 73 2.5 SSW 43 63 23 34 1012.5 1012.5 0.0
05/04:00pm 15.1 6.9 9.7 70 2.8 SSW 43 61 23 33 1012.3 1012.3 0.0
05/03:36pm 14.6 5.8 9.6 72 2.6 SSW 46 65 25 35 1012.3 1012.3 0.0
05/03:30pm 15.1 6.3 9.5 69 2.9 SSW 46 63 25 34 1012.3 1012.3 0.0
05/03:00pm 14.9 7.1 9.9 72 2.6 S 41 63 22 34 1012.1 1012.1 0.0
05/02:30pm 15.5 7.3 9.8 69 3.0 SSW 43 65 23 35 1011.8 1011.8 0.0
05/02:00pm 15.3 5.9 10.1 71 2.7 SSW 50 72 27 39 1011.7 1011.7 0.0
05/01:55pm 16.0 6.0 10.7 71 2.8 SSW 54 72 29 39 1011.7 1011.7 0.0
05/01:51pm 15.8 5.7 10.3 70 2.9 SSW 54 72 29 39 1011.6 1011.6 0.0
05/01:30pm 15.4 7.9 10.8 74 2.4 SSW 41 65 22 35 1011.6 1011.6 0.0
05/01:00pm 15.0 7.1 10.8 76 2.2 SSW 43 67 23 36 1011.4 1011.4 0.0
05/12:45pm 16.3 8.5 13.0 81 1.8 SSW 46 65 25 35 1011.3 1011.3 0.0
05/12:30pm 14.4 6.0 11.2 81 1.7 SSW 46 63 25 34 1011.2 1011.2 0.0
05/12:04pm 14.7 5.1 10.7 77 2.1 SSW 52 74 28 40 1011.1 1011.1 0.0
05/12:00pm 15.0 5.5 11.0 77 2.1 SSW 52 65 28 35 1011.1 1011.1 0.0
05/11:56am 15.1 5.6 11.3 78 2.0 SSW 52 67 28 36 1011.1 1011.1 0.0
05/11:30am 14.7 5.9 11.1 79 1.9 SSW 48 67 26 36 1011.0 1011.0 0.0
05/11:00am 15.4 7.9 12.2 81 1.7 SSW 43 61 23 33 1010.8 1010.8 0.0
05/10:30am 15.5 7.3 11.7 78 2.1 SSW 46 67 25 36 1010.7 1010.7 0.0
05/10:00am 13.4 5.6 11.1 86 1.2 SSW 43 67 23 36 1010.7 1010.7 0.0
05/09:59am 13.6 5.8 11.3 86 1.2 SSW 43 67 23 36 1010.7 1010.7 0.0
05/09:57am 13.7 5.6 10.9 83 1.5 SSW 44 67 24 36 1010.6 1010.6 0.0
05/09:53am 14.7 6.7 11.1 79 1.9 SSW 44 59 24 32 1010.6 1010.6 0.0
05/09:39am 14.2 6.2 11.0 81 1.7 SSW 44 65 24 35 1010.6 1010.6 0.0
05/09:30am 13.8 5.7 10.8 82 1.6 SSW 44 65 24 35 1010.5 1010.5 0.0
05/09:14am 13.9 6.1 11.1 83 1.5 SSW 43 61 23 33 1010.5 1010.5 0.0
05/09:00am 13.9 5.8 10.7 81 1.7 SSW 44 59 24 32 1010.4 1010.4 0.0
05/08:30am 13.9 6.0 10.9 82 1.6 SSW 43 63 23 34 1010.1 1010.1 0.0
05/08:05am 13.7 6.2 10.9 83 1.5 SSW 41 59 22 32 1009.9 1009.9 0.0
05/08:00am 13.7 5.7 10.5 81 1.7 SSW 43 59 23 32 1009.9 1009.9 0.0
05/07:30am 13.8 6.6 10.4 80 1.8 SSW 39 61 21 33 1009.5 1009.5 0.0
05/07:21am 13.7 5.5 10.5 81 1.7 SSW 44 63 24 34 1009.4 1009.4 0.0
05/07:00am 13.8 6.0 11.1 84 1.4 SSW 43 59 23 32 1009.1 1009.1 0.0
05/06:50am 14.1 7.7 10.7 80 1.8 SSW 35 54 19 29 1009.0 1009.0 0.0
05/06:30am 13.9 6.1 11.2 84 1.4 SSW 43 56 23 30 1008.8 1008.8 0.0
05/06:00am 14.1 6.9 10.5 79 1.9 SSW 39 61 21 33 1008.3 1008.3 0.0
05/05:30am 14.2 7.5 11.0 81 1.7 SSW 37 59 20 32 1007.6 1007.6 0.0
05/05:29am 14.2 7.6 11.2 82 1.6 SSW 37 57 20 31 1007.7 1007.7 0.0
05/05:28am 14.2 7.6 11.4 83 1.5 SSW 37 54 20 29 1007.6 1007.6 0.0
05/05:00am 14.2 6.9 11.7 85 1.3 SSW 41 59 22 32 1006.9 1006.9 0.0
05/04:31am 14.2 7.4 11.9 86 1.2 SSW 39 57 21 31 1006.3 1006.2 0.0
05/04:30am 14.2 7.4 11.9 86 1.2 SSW 39 54 21 29 1006.3 1006.2 0.0
05/04:01am 14.3 8.9 12.2 87 1.1 SSW 32 50 17 27 1006.0 1005.9 0.0
05/04:00am 14.3 8.7 12.0 86 1.2 SSW 33 50 18 27 1006.0 1005.9 0.0
05/03:38am 14.4 9.1 12.4 88 1.1 S 32 50 17 27 1005.9 1005.8 0.0
05/03:30am 14.4 8.5 12.3 87 1.1 SSW 35 48 19 26 1005.8 1005.7 0.0
05/03:00am 14.5 8.4 13.0 91 0.8 SSW 37 56 20 30 1005.5 1005.4 0.0
05/02:46am 14.5 9.3 13.4 93 0.6 SSW 33 52 18 28 1005.4 1005.3 0.0
05/02:30am 14.6 8.4 13.8 95 0.4 SSW 39 54 21 29 1005.3 1005.2 0.0
05/02:00am 15.1 11.3 14.8 98 0.2 SSW 28 43 15 23 1005.2 1005.1 0.0
05/01:30am 15.2 12.9 14.7 97 0.3 SSW 20 28 11 15 1005.3 1005.2 0.0
05/01:00am 15.4 14.5 14.8 96 0.3 WSW 13 15 7 8 1005.6 1005.5 0.0
05/12:30am 15.4 13.3 14.6 95 0.5 WSW 19 28 10 15 1005.9 1005.8 0.0
05/12:00am 15.6 13.5 14.6 94 0.6 W 19 24 10 13 1006.3 1006.2 0.0
 
Date/Time
EDT
Temp
°C
App
Temp
°C
Dew
Point
°C
Rel
Hum
%
Delta-T
°C
Wind Press
QNH
hPa
Press
MSL
hPa
Rain since
9am
mm
Dir  Spd
km/h
Gust
km/h
Spd
kts
Gust
kts
04/11:30pm 15.5 12.8 14.7 95 0.5 WSW 22 30 12 16 1006.1 1006.0 0.0
04/11:00pm 15.5 13.8 14.7 95 0.5 W 17 32 9 17 1006.3 1006.2 0.0
04/10:30pm 15.8 12.8 14.8 94 0.6 WSW 24 39 13 21 1006.5 1006.4 0.0
04/10:00pm 16.2 14.3 15.2 94 0.6 W 19 26 10 14 1006.3 1006.2 0.0
04/09:30pm 16.5 14.6 15.2 92 0.8 W 19 28 10 15 1006.1 1006.0 0.0
04/09:09pm 16.7 14.5 14.9 89 1.0 W 20 28 11 15 1006.0 1005.9 0.0
04/09:00pm 16.8 15.1 14.8 88 1.2 W 17 26 9 14 1005.9 1005.8 0.0
04/08:30pm 17.6 15.6 13.9 79 2.1 WNW 17 20 9 11 1005.6 1005.5 0.0
04/08:00pm 18.7 17.2 14.2 75 2.6 NW 15 19 8 10 1005.6 1005.5 0.0
04/07:30pm 19.7 18.5 14.1 70 3.2 NNW 13 19 7 10 1005.4 1005.3 0.0
04/07:00pm 19.8 16.7 13.5 67 3.6 NW 22 30 12 16 1005.9 1005.8 0.0
04/06:30pm 21.6 18.9 11.6 53 5.6 NW 17 28 9 15 1005.4 1005.3 0.0
04/06:00pm 22.5 20.6 11.9 51 6.0 N 13 20 7 11 1005.1 1005.0 0.0
04/05:30pm 23.1 20.6 12.4 51 6.1 NNW 17 24 9 13 1005.6 1005.5 0.0
04/05:00pm 24.2 21.8 11.5 45 7.2 NNW 15 19 8 10 1006.0 1005.9 0.0
04/04:30pm 24.3 22.5 10.9 43 7.5 N 11 19 6 10 1006.2 1006.1 0.0
04/04:00pm 24.2 22.5 12.5 48 6.7 NNW 13 20 7 11 1006.8 1006.7 0.0
04/03:30pm 24.3 22.5 14.4 54 5.9 NNW 17 22 9 12 1007.2 1007.2 0.0
04/03:00pm 23.9 21.7 14.3 55 5.7 NNW 19 22 10 12 1007.9 1007.9 0.0
04/02:30pm 25.2 23.8 15.5 55 5.9 NNW 17 20 9 11 1008.0 1008.0 0.0
04/02:00pm 24.4 25.4 19.5 74 3.2 NNE 13 26 7 14 1008.2 1008.2 0.0
04/01:30pm 23.6 24.2 18.7 74 3.1 NNE 13 20 7 11 1008.8 1008.8 0.0
04/01:00pm 21.5 20.7 17.1 76 2.7 ENE 17 24 9 13 1009.1 1009.1 0.0
04/12:30pm 21.4 20.7 18.2 82 2.0 E 19 24 10 13 1009.4 1009.4 0.0
04/12:00pm 20.7 19.3 17.9 84 1.7 E 22 28 12 15 1009.5 1009.5 0.0
04/11:30am 21.8 20.5 19.0 84 1.8 E 24 32 13 17 1009.6 1009.6 0.0
04/11:00am 20.8 19.4 17.0 79 2.3 E 20 26 11 14 1010.1 1010.1 0.0
04/10:30am 21.7 20.3 17.1 75 2.8 ENE 20 26 11 14 1010.2 1010.2 0.0
04/10:00am 20.6 18.3 15.6 73 3.0 E 22 30 12 16 1010.4 1010.4 0.0
04/09:30am 20.4 18.5 15.8 75 2.7 ENE 20 26 11 14 1010.5 1010.5 0.0
04/09:00am 19.7 18.3 15.6 77 2.4 ENE 17 26 9 14 1010.6 1010.6 0.2
04/08:30am 18.9 18.5 16.1 84 1.7 E 13 17 7 9 1010.9 1010.9 0.2
04/08:00am 17.1 16.3 16.0 93 0.7 E 15 20 8 11 1010.6 1010.6 0.2
04/07:30am 16.5 16.8 15.9 96 0.4 E 9 13 5 7 1010.6 1010.6 0.2
04/07:00am 15.0 13.7 14.8 99 0.1 E 15 19 8 10 1010.4 1010.4 0.2
04/06:30am 13.6 11.9 13.6 100 0.0 E 15 19 8 10 1010.5 1010.5 0.2
04/06:00am 12.0 10.2 12.0 100 0.0 ESE 13 17 7 9 1010.5 1010.5 0.2
04/05:30am 11.5 9.5 11.5 100 0.0 E 13 15 7 8 1010.7 1010.7 0.2
04/05:00am 11.4 9.4 11.4 100 0.0 ESE 13 15 7 8 1010.9 1010.9 0.2
04/04:30am 11.2 9.1 11.2 100 0.0 ESE 13 13 7 7 1011.1 1011.1 0.2
04/04:00am 11.2 9.1 11.2 100 0.0 ESE 13 15 7 8 1011.2 1011.2 0.2
04/03:30am 11.0 8.9 11.0 100 0.0 ENE 13 17 7 9 1011.2 1011.2 0.2
04/03:00am 10.4 8.5 10.4 100 0.0 ESE 11 13 6 7 1011.8 1011.8 0.2
04/02:46am 11.2 9.9 11.2 100 0.0 ESE 9 11 5 6 1012.1 1012.1 0.2
04/02:30am 10.6 9.5 10.6 100 0.0 E 7 9 4 5 1012.4 1012.4 0.2
04/02:00am 10.5 9.4 10.5 100 0.0 E 7 9 4 5 1013.0 1013.0 0.2
04/01:51am 11.0 10.0 11.0 100 0.0 E 7 9 4 5 1013.2 1013.2 0.2
04/01:38am 11.5 10.8 11.5 100 0.0 E 6 7 3 4 1013.4 1013.4 0.2
04/01:30am 11.8 11.2 11.8 100 0.0 E 6 7 3 4 1013.6 1013.6 0.2
04/01:00am 10.4 9.2 10.2 99 0.1 NE 7 9 4 5 1013.7 1013.7 0.2
04/12:30am 11.6 10.7 11.4 99 0.1 ENE 7 9 4 5 1013.9 1013.9 0.2
04/12:21am 11.5 10.8 11.3 99 0.1 NE 6 7 3 4 1014.0 1014.0 0.2
04/12:00am 11.4 10.5 11.2 99 0.1 NE 7 7 4 4 1014.1 1014.1 0.2
 
Date/Time
EDT
Temp
°C
App
Temp
°C
Dew
Point
°C
Rel
Hum
%
Delta-T
°C
Wind Press
QNH
hPa
Press
MSL
hPa
Rain since
9am
mm
Dir  Spd
km/h
Gust
km/h
Spd
kts
Gust
kts
03/11:43pm 11.5 10.6 11.3 99 0.1 NE 7 9 4 5 1014.2 1014.2 0.2
03/11:30pm 11.3 10.3 11.1 99 0.1 ENE 7 9 4 5 1014.2 1014.2 0.2
03/11:00pm 13.3 14.3 13.1 99 0.1 CALM 0 0 0 0 1014.5 1014.5 0.2
03/10:54pm 13.7 14.8 13.5 99 0.1 CALM 0 0 0 0 1014.5 1014.5 0.2
03/10:49pm 13.5 14.5 13.3 99 0.1 CALM 0 0 0 0 1014.5 1014.5 0.2
03/10:30pm 13.7 14.8 13.5 99 0.1 CALM 0 0 0 0 1014.4 1014.4 0.2
03/10:25pm 13.7 14.8 13.5 99 0.1 CALM 0 0 0 0 1014.4 1014.4 0.2
03/10:00pm 14.5 15.5 14.3 99 0.1 ESE 2 6 1 3 1014.4 1014.4 0.2
03/09:30pm 14.5 14.3 13.7 95 0.4 ESE 7 9 4 5 1013.9 1013.9 0.2
03/09:00pm 14.8 14.5 13.3 91 0.8 SE 7 9 4 5 1013.8 1013.8 0.2
03/08:30pm 15.1 13.9 12.8 86 1.3 SSW 11 13 6 7 1013.7 1013.7 0.2
03/08:00pm 17.9 17.6 13.2 74 2.6 SSW 7 9 4 5 1013.7 1013.7 0.2
03/07:30pm 19.7 19.8 13.9 69 3.3 WNW 6 7 3 4 1013.9 1013.9 0.2
03/07:00pm 19.7 19.4 13.2 66 3.7 WNW 7 11 4 6 1014.0 1014.0 0.2
03/06:30pm 20.4 19.9 13.8 66 3.8 W 9 11 5 6 1013.9 1013.9 0.2
03/06:00pm 20.8 20.9 14.5 67 3.7 W 7 11 4 6 1013.8 1013.8 0.2
03/05:30pm 20.6 20.2 14.0 66 3.8 W 9 13 5 7 1014.0 1014.0 0.2
03/05:00pm 20.5 19.4 14.2 67 3.7 W 13 17 7 9 1014.2 1014.2 0.2
03/04:30pm 20.5 19.6 15.9 75 2.8 WNW 15 19 8 10 1014.3 1014.3 0.2
03/04:00pm 20.7 19.2 15.3 71 3.2 WNW 17 20 9 11 1014.3 1014.3 0.2
03/03:30pm 20.7 18.6 14.6 68 3.6 NW 19 22 10 12 1014.4 1014.4 0.2
03/03:00pm 21.4 19.0 14.3 64 4.1 WNW 20 24 11 13 1014.5 1014.5 0.2
03/02:30pm 23.6 22.1 13.2 52 6.0 NW 13 17 7 9 1014.4 1014.4 0.2
03/02:00pm 24.0 21.3 10.3 42 7.6 NNW 15 20 8 11 1014.6 1014.6 0.2
03/01:30pm 23.2 21.6 12.8 52 6.0 NNW 13 17 7 9 1014.8 1014.8 0.2
03/01:00pm 22.8 22.2 14.6 60 4.8 NW 11 15 6 8 1015.1 1015.1 0.2
03/12:30pm 21.6 21.2 13.0 58 4.9 NNW 7 11 4 6 1015.3 1015.3 0.2
03/12:00pm 20.9 20.4 12.8 60 4.6 WSW 7 13 4 7 1015.7 1015.7 0.2
03/11:30am 20.2 19.2 12.2 60 4.5 WSW 9 15 5 8 1016.0 1016.0 0.2
03/11:00am 20.1 19.6 13.8 67 3.6 WNW 9 15 5 8 1016.0 1016.0 0.2
03/10:30am 19.4 19.0 14.0 71 3.1 W 9 17 5 9 1016.0 1016.0 0.0
03/10:00am 18.9 17.7 14.0 73 2.8 W 13 17 7 9 1016.2 1016.2 0.0
03/09:30am 18.4 19.0 15.3 82 1.8 W 6 13 3 7 1016.3 1016.3 0.0
03/09:03am 17.3 19.0 17.1 99 0.1 NE 4 7 2 4 1016.2 1016.2 0.0
03/09:00am 17.2 18.9 17.2 100 0.0 NE 4 7 2 4 1016.2 1016.2 0.0
03/08:42am 16.0 17.2 16.0 100 0.0 NE 4 9 2 5 1016.1 1016.1 0.0
03/08:30am 15.7 15.9 15.7 100 0.0 NE 9 11 5 6 1015.9 1015.9 0.0
03/08:13am 15.1 15.1 15.1 100 0.0 NE 9 13 5 7 1015.8 1015.8 0.0
03/08:11am 15.3 15.3 15.3 100 0.0 NE 9 13 5 7 1015.8 1015.8 0.0
03/08:00am 15.2 15.6 15.2 100 0.0 ENE 7 11 4 6 1015.7 1015.7 0.0
03/07:32am 14.2 14.2 14.2 100 0.0 E 7 9 4 5 1015.5 1015.5 0.0

Other formats

Comma delimited format used in spreadsheet applications
http://www.bom.gov.au/fwo/IDT60801/IDT60801.94850.axf

JavaScript Object Notation format (JSON) in row-major order
http://www.bom.gov.au/fwo/IDT60801/IDT60801.94850.json

Data quality

Most of these data are generated automatically and are frequently updated. Quality checks on data are not normally performed. It is possible for incorrect values to appear. Refer to information at About Latest Weather Observations and please check the disclaimer before using these data.